EHVL  Vlieland Heliport

Add Bookmark

Vlieland, The Netherlands

Status
Operational
Latitude Longitude
53° 17' 47" N 5° 5' 8" E
53.296665 5.085833
Local (DST + 2) UTC (GMT + 1)
Oct 23, 2014 04:16 Oct 23, 2014 02:16
Sunrise-Sunset Local UTC
Begin Civil Twilight 07:44 05:44
Sunrise 08:20 06:20
Sunset 06:27 16:27
End Civil Twilight 07:03 17:03

Current Weather

METAR Observed MVFR
EHVL 230155Z AUTO 26014KT 9999 SCT015 OVC019 13/10 Q1019 WHT Thu, Oct 23, 2014 @ 01:55 UTC
(21 Minutes ago)
Marginal Visual Flight Rules
Wind Visibility Clouds Conditions
260° at 14 knots (26 kph) 10 km or more
  • Scattered at 1,500' AGL
  • Overcast at 1,900' AGL
  • No significant weather
Temperatures Readings Precipitation
Current Temp 13°C (55°F)
Dewpoint 10°C (50°F)
Humidity 82%
Altimeter 30.09"Hg
Sea Level Pressure 1019mb
Field Elevation 16.4'
None Recorded

Additional weather within a 92.6km radius of EHVL

Map ICAO Location
EHMG 36.5km N (347°)
EHLW 45.6km E (099°)
EHKD 46.1km S (206°)
EHMA 61.5km E (068°)
EHQE 75.4km W (236°)

24 Hour Weather History

Loading
-

24 Hour Weather Graphs

Loading
-

CheckWX.com is intended as a tool to help pilots better visualize weather data. It is not intended as a substitute for an official weather briefing obtained from a Flight Service Station. CheckWX.com does not meet the FAA requirements for an official pre-flight weather briefing. Therefore, it's important that pilots still call and obtain an official FSS pre-flight weather briefing.